Milwaukee, Wisconsin
Traffic Map
Current Weather Conditions
Milwaukee, Wisconsin
Overcast Haze
Overcast
72°
Feels Like: 72°
Wind Chill: 72° Ceiling: 300
Heat Index: 72° Visibility: 5mi
Dew Point: 70° Wind: 6mph
Humidity: 93% Direction: 90° (E)
Pressure: 29.8in Gusts: 0mph
Raw Report DataKMKE 231052Z 09005KT 5SM BR BKN003 BKN011 OVC095 22/21 A2980 RMK AO2 SLP085 VIS SE-S 2 T02220211
Traffic Incident Summary
Active as of:
Severity:
Category:
InformationThere was an issue retrieving the traffic information for this location. Please try a different location or try again shortly.
Advertisements
Track Severe Weather on mobile